RJFR

Details ICAO RJFR (KKJ)
Name NEW KITAKYUSHU
Region Japan
Timezone Asia/Tokyo (UTC+9.0)
Plans Departing 17
Arriving 26
Stats Elevation 21 ft / 6 m (AMSL)
Location 33.845940° 131.034689°
Runways 1
Magnetic Variation 7.535° W
Sunrise 2017-12-14 22:14:42 UTC / 2017-12-15 07:14:42 Local
Sunset 2017-12-15 08:09:47 UTC / 2017-12-15 17:09:47 Local
Advertisement - Login to hide

Runways

ID Width Length Bearing (true) Bearing (mag) Surface Threshold Offset Overrun Length
18 260 ft / 79 m 8,625 ft / 2,629 m 170.36° 177.89° Asphalt 0 ft / 0 m 0 ft / 0 m
36 260 ft / 79 m 8,625 ft / 2,629 m 350.36° 357.89° Asphalt 0 ft / 0 m 0 ft / 0 m

Approach Navaids

Runway Type Ident Frequency Range Bearing (true) Bearing (mag) Slope Elevation
18 Localiser IKQ 109.15 MHz 18 nm / 33 km 169.76° 177.30° - 54 ft / 16 m (AMSL)
18 Glidescope IKQ 109.15 MHz 10 nm / 19 km 170.36° 177.89° 3.00° 46 ft / 14 m (AMSL)

Map

Weather


0- 5 10 15 20 25 30 35+ Temperature / ° C

Clouds and Precipitation
Forecast for 2017-12-15 00:00 UTC. Updated 2 hours ago

Ground ~20,000 ft ~40,000 ft Winds

METAR

RJFR 142100Z 04007KT 9999 FEW020 05/02 Q1025

TAF

TAF RJFR 141709Z 1418/1600 07004KT 9999 FEW030 SCT050 BECMG 1418/1420 09007KT BECMG 1509/1512 27005KT
Warning: Do not use this data for real-world aviation or navigation. No guarantee of current accuracy is given.